createdAt,value
2019-04-25T00:00:59.145Z,76.81
2019-04-25T00:02:03.548Z,76.70
2019-04-25T00:03:07.942Z,76.75
2019-04-25T00:04:12.297Z,76.67
2019-04-25T00:05:16.550Z,76.55
2019-04-25T00:06:21.575Z,76.53
2019-04-25T00:07:25.323Z,76.45
2019-04-25T00:08:31.118Z,76.48
2019-04-25T00:09:34.149Z,77.00
2019-04-25T00:10:39.184Z,76.95
2019-04-25T00:11:45.237Z,76.85
2019-04-25T00:12:48.062Z,76.69
2019-04-25T00:13:51.659Z,77.19
2019-04-25T00:14:55.921Z,77.20
2019-04-25T00:16:01.769Z,77.32
2019-04-25T00:17:04.614Z,77.47
2019-04-25T00:18:08.994Z,77.80
2019-04-25T00:19:13.232Z,77.75
2019-04-25T00:20:17.703Z,77.77
2019-04-25T00:21:22.013Z,78.04
2019-04-25T00:22:29.361Z,78.30
2019-04-25T00:23:32.933Z,78.09
2019-04-25T00:24:37.257Z,78.16
2019-04-25T00:25:45.226Z,78.53
2019-04-25T00:26:46.319Z,78.71
2019-04-25T00:27:51.629Z,78.37
2019-04-25T00:28:54.778Z,78.85
2019-04-25T00:29:59.059Z,78.98
2019-04-25T00:31:03.366Z,79.39
2019-04-25T00:32:07.786Z,79.29
2019-04-25T00:33:12.064Z,79.39
2019-04-25T00:34:16.280Z,79.50
2019-04-25T00:35:21.682Z,79.17
2019-04-25T00:36:25.059Z,79.14
2019-04-25T00:37:29.390Z,79.04
2019-04-25T00:38:33.783Z,78.89
2019-04-25T00:39:38.158Z,78.82
2019-04-25T00:40:43.494Z,78.79
2019-04-25T00:41:47.398Z,78.68
2019-04-25T00:42:53.407Z,78.63
2019-04-25T00:43:55.410Z,78.61
2019-04-25T00:44:59.805Z,78.56
2019-04-25T00:46:04.174Z,78.60
2019-04-25T00:47:08.479Z,78.64
2019-04-25T00:48:12.890Z,78.65
2019-04-25T00:49:17.267Z,78.69
2019-04-25T00:50:21.900Z,78.72
2019-04-25T00:51:25.961Z,78.82
2019-04-25T00:52:31.381Z,78.82
2019-04-25T00:53:34.641Z,78.80
2019-04-25T00:54:38.960Z,78.60
2019-04-25T00:55:44.281Z,78.54
2019-04-25T00:56:48.269Z,78.67
2019-04-25T00:57:52.819Z,78.55
2019-04-25T00:58:56.552Z,78.34
2019-04-25T01:00:01.892Z,78.24
2019-04-25T01:01:05.229Z,78.02
2019-04-25T01:02:11.359Z,78.06
2019-04-25T01:03:13.924Z,78.15
2019-04-25T01:04:18.326Z,78.05
2019-04-25T01:05:22.653Z,78.22
2019-04-25T01:06:26.975Z,78.56
2019-04-25T01:07:32.369Z,78.55
2019-04-25T01:08:35.740Z,78.73
2019-04-25T01:09:40.074Z,78.73
2019-04-25T01:10:44.474Z,78.60
2019-04-25T01:11:48.730Z,78.61
2019-04-25T01:12:53.261Z,78.73
2019-04-25T01:13:57.396Z,78.37
2019-04-25T01:15:01.856Z,78.56
2019-04-25T01:16:06.085Z,78.68
2019-04-25T01:17:11.687Z,78.82
2019-04-25T01:18:14.811Z,79.11
2019-04-25T01:19:19.164Z,78.89
2019-04-25T01:20:23.996Z,79.03
2019-04-25T01:21:27.863Z,79.39
2019-04-25T01:22:32.246Z,79.38
2019-04-25T01:23:36.609Z,79.19
2019-04-25T01:24:40.881Z,79.58
2019-04-25T01:25:46.692Z,79.40
2019-04-25T01:26:49.695Z,79.17
2019-04-25T01:27:54.778Z,79.02
2019-04-25T01:28:58.363Z,78.94
2019-04-25T01:30:04.007Z,78.51
2019-04-25T01:31:07.031Z,78.58
2019-04-25T01:32:11.390Z,79.12
2019-04-25T01:33:15.631Z,79.54
2019-04-25T01:34:20.056Z,79.63
2019-04-25T01:35:24.428Z,80.22
2019-04-25T01:36:28.685Z,80.55
2019-04-25T01:37:34.102Z,80.84
2019-04-25T01:38:37.468Z,80.91
2019-04-25T01:39:41.827Z,81.03
2019-04-25T01:40:47.120Z,81.11
2019-04-25T01:41:51.317Z,80.55
2019-04-25T01:42:55.782Z,80.65
2019-04-25T01:43:59.759Z,81.40
2019-04-25T01:45:04.050Z,80.94
2019-04-25T01:46:07.932Z,80.89
2019-04-25T01:47:14.000Z,81.05
2019-04-25T01:48:16.511Z,80.16
2019-04-25T01:49:20.954Z,80.59
2019-04-25T01:50:28.176Z,79.92
2019-04-25T01:51:31.640Z,79.44
2019-04-25T01:52:35.887Z,79.42
2019-04-25T01:53:40.346Z,79.37
2019-04-25T01:54:44.680Z,79.44
2019-04-25T01:55:55.913Z,79.08
2019-04-25T01:56:55.022Z,79.50
2019-04-25T01:57:57.569Z,79.92
2019-04-25T01:59:01.883Z,80.06
2019-04-25T02:00:06.321Z,80.09
2019-04-25T02:01:10.677Z,80.16
2019-04-25T02:02:15.074Z,80.22
2019-04-25T02:03:19.454Z,80.40
2019-04-25T02:04:23.748Z,81.21
2019-04-25T02:05:28.184Z,80.72
2019-04-25T02:06:33.469Z,80.60
2019-04-25T02:07:36.746Z,80.56
2019-04-25T02:08:41.113Z,80.52
2019-04-25T02:09:45.472Z,80.85
2019-04-25T02:10:50.762Z,81.36
2019-04-25T02:11:54.770Z,81.27
2019-04-25T02:12:58.520Z,81.50
2019-04-25T02:14:04.834Z,81.70
2019-04-25T02:15:07.309Z,81.83
2019-04-25T02:16:11.632Z,81.91
2019-04-25T02:17:16.013Z,81.94
2019-04-25T02:18:20.343Z,81.79
2019-04-25T02:19:24.693Z,81.80
2019-04-25T02:20:29.027Z,81.93
2019-04-25T02:21:33.557Z,82.11
2019-04-25T02:22:37.771Z,82.30
2019-04-25T02:23:42.145Z,82.53
2019-04-25T02:24:46.504Z,82.39
2019-04-25T02:25:50.816Z,82.08
2019-04-25T02:26:56.023Z,81.82
2019-04-25T02:28:01.501Z,81.30
2019-04-25T02:29:04.694Z,80.97
2019-04-25T02:30:08.163Z,80.74
2019-04-25T02:31:17.828Z,81.44
2019-04-25T02:32:16.913Z,81.15
2019-04-25T02:33:21.319Z,81.25
2019-04-25T02:34:25.565Z,81.28
2019-04-25T02:35:30.003Z,81.29
2019-04-25T02:36:34.864Z,82.44
2019-04-25T02:37:38.773Z,82.64
2019-04-25T02:38:44.250Z,82.67
2019-04-25T02:39:47.411Z,82.91
2019-04-25T02:40:51.688Z,83.17
2019-04-25T02:41:57.884Z,83.16
2019-04-25T02:43:01.993Z,82.80
2019-04-25T02:44:09.405Z,82.30
2019-04-25T02:45:09.108Z,83.96
2019-04-25T02:46:15.193Z,84.28
2019-04-25T02:47:17.855Z,84.35
2019-04-25T02:48:24.111Z,84.61
2019-04-25T02:49:35.467Z,84.54
2019-04-25T02:50:30.931Z,84.53
2019-04-25T02:51:35.279Z,84.90
2019-04-25T02:52:39.518Z,84.89
2019-04-25T02:53:44.702Z,84.79
2019-04-25T02:54:48.349Z,84.03
2019-04-25T02:55:53.855Z,83.74
2019-04-25T02:56:58.363Z,83.83
2019-04-25T02:58:02.534Z,83.89
2019-04-25T02:59:08.776Z,83.78
2019-04-25T03:00:10.045Z,83.69
2019-04-25T03:01:19.440Z,84.22
2019-04-25T03:02:18.824Z,84.52
2019-04-25T03:03:24.550Z,84.75
2019-04-25T03:04:27.512Z,84.95
2019-04-25T03:05:31.747Z,85.08
2019-04-25T03:06:36.262Z,84.79
2019-04-25T03:07:40.516Z,84.46
2019-04-25T03:08:45.117Z,84.07
2019-04-25T03:09:49.136Z,83.73
2019-04-25T03:10:54.359Z,83.53
2019-04-25T03:11:58.751Z,83.55
2019-04-25T03:13:07.053Z,83.26
2019-04-25T03:14:08.688Z,83.17
2019-04-25T03:15:10.906Z,83.29
2019-04-25T03:16:15.354Z,82.89
2019-04-25T03:17:19.672Z,82.80
2019-04-25T03:18:24.802Z,82.73
2019-04-25T03:19:28.278Z,82.64
2019-04-25T03:20:35.289Z,82.47
2019-04-25T03:21:37.072Z,82.36
2019-04-25T03:22:41.387Z,82.19
2019-04-25T03:23:46.485Z,82.02
2019-04-25T03:24:50.109Z,82.17
2019-04-25T03:25:54.416Z,82.25
2019-04-25T03:26:59.409Z,81.98
2019-04-25T03:28:04.979Z,82.09
2019-04-25T03:29:07.386Z,82.21
2019-04-25T03:30:14.845Z,82.05
2019-04-25T03:31:23.009Z,81.96
2019-04-25T03:32:27.933Z,82.26
2019-04-25T03:33:26.946Z,82.29
2019-04-25T03:34:31.339Z,83.06
2019-04-25T03:35:35.661Z,82.51
2019-04-25T03:36:40.069Z,82.54
2019-04-25T03:37:44.483Z,82.69
2019-04-25T03:38:48.821Z,82.83
2019-04-25T03:39:53.559Z,83.13
2019-04-25T03:40:57.512Z,83.56
2019-04-25T03:42:02.254Z,83.49
2019-04-25T03:43:07.083Z,83.90
2019-04-25T03:44:10.602Z,84.26
2019-04-25T03:45:14.971Z,84.34
2019-04-25T03:46:19.127Z,84.06
2019-04-25T03:47:23.669Z,84.30
2019-04-25T03:48:27.905Z,84.36
2019-04-25T03:49:33.689Z,84.07
2019-04-25T03:50:36.507Z,83.81
2019-04-25T03:51:40.903Z,83.49
2019-04-25T03:52:45.306Z,83.42
2019-04-25T03:53:49.598Z,83.21
2019-04-25T03:54:53.958Z,82.98
2019-04-25T03:55:58.322Z,82.87
2019-04-25T03:57:05.257Z,82.93
2019-04-25T03:58:10.118Z,82.82
2019-04-25T03:59:11.372Z,82.89
2019-04-25T04:00:15.738Z,82.71
2019-04-25T04:01:20.075Z,82.66
2019-04-25T04:02:24.511Z,82.49
2019-04-25T04:03:28.781Z,82.26
2019-04-25T04:04:33.586Z,82.06
2019-04-25T04:05:37.486Z,82.13
2019-04-25T04:06:41.800Z,82.09
2019-04-25T04:07:46.178Z,81.89
2019-04-25T04:08:50.551Z,82.75
2019-04-25T04:09:55.174Z,82.52
2019-04-25T04:10:59.313Z,82.33
2019-04-25T04:12:05.173Z,82.42
2019-04-25T04:13:08.502Z,82.27
2019-04-25T04:14:14.407Z,82.38
2019-04-25T04:15:16.672Z,82.24
2019-04-25T04:16:21.011Z,82.71
2019-04-25T04:17:25.392Z,82.53
2019-04-25T04:18:29.857Z,82.28
2019-04-25T04:19:34.196Z,81.87
2019-04-25T04:20:38.629Z,81.83
2019-04-25T04:21:43.266Z,81.53
2019-04-25T04:22:47.274Z,81.77
2019-04-25T04:23:51.628Z,81.49
2019-04-25T04:24:55.942Z,81.61
2019-04-25T04:26:00.268Z,81.76
2019-04-25T04:27:06.693Z,81.50
2019-04-25T04:28:09.713Z,81.82
2019-04-25T04:29:14.125Z,82.19
2019-04-25T04:30:17.599Z,81.50
2019-04-25T04:31:23.460Z,81.52
2019-04-25T04:32:26.310Z,81.37
2019-04-25T04:33:34.008Z,81.37
2019-04-25T04:34:35.144Z,81.49
2019-04-25T04:35:39.437Z,81.57
2019-04-25T04:36:46.476Z,82.17
2019-04-25T04:37:48.115Z,81.64
2019-04-25T04:38:54.200Z,81.53
2019-04-25T04:39:56.871Z,81.40
2019-04-25T04:41:01.246Z,81.19
2019-04-25T04:42:05.580Z,81.14
2019-04-25T04:43:09.932Z,81.42
2019-04-25T04:44:15.429Z,81.11
2019-04-25T04:45:18.704Z,81.22
2019-04-25T04:46:24.000Z,81.25
2019-04-25T04:47:27.373Z,81.40
2019-04-25T04:48:31.741Z,82.27
2019-04-25T04:49:36.122Z,81.71
2019-04-25T04:50:40.539Z,81.51
2019-04-25T04:51:44.798Z,81.61
2019-04-25T04:52:49.344Z,81.13
2019-04-25T04:53:53.819Z,81.13
2019-04-25T04:55:06.473Z,81.15
2019-04-25T04:56:04.158Z,80.94
2019-04-25T04:57:18.214Z,81.08
2019-04-25T04:58:11.223Z,81.01
2019-04-25T04:59:18.652Z,81.03
2019-04-25T05:00:23.179Z,81.03
2019-04-25T05:01:26.430Z,80.94
2019-04-25T05:02:30.754Z,81.59
2019-04-25T05:03:35.212Z,81.54
2019-04-25T05:04:39.586Z,81.17
2019-04-25T05:05:44.083Z,81.00
2019-04-25T05:06:48.201Z,80.90
2019-04-25T05:07:53.926Z,80.82
2019-04-25T05:08:56.928Z,81.45
2019-04-25T05:10:03.191Z,81.31
2019-04-25T05:11:05.632Z,81.38
2019-04-25T05:12:10.697Z,81.49
2019-04-25T05:13:15.777Z,81.16
2019-04-25T05:14:19.508Z,81.18
2019-04-25T05:15:24.750Z,81.54
2019-04-25T05:16:27.579Z,81.64
2019-04-25T05:17:32.028Z,81.52
2019-04-25T05:18:39.407Z,81.32
2019-04-25T05:19:40.747Z,81.07
2019-04-25T05:20:45.087Z,81.25
2019-04-25T05:21:49.496Z,81.12
2019-04-25T05:22:54.961Z,81.33
2019-04-25T05:23:58.183Z,81.66
2019-04-25T05:25:03.448Z,81.68
2019-04-25T05:26:06.974Z,81.44
2019-04-25T05:27:11.354Z,81.93
2019-04-25T05:28:17.324Z,81.46
2019-04-25T05:29:22.106Z,81.08
2019-04-25T05:30:26.514Z,81.29
2019-04-25T05:31:28.858Z,81.42
2019-04-25T05:32:34.257Z,81.84
2019-04-25T05:33:37.630Z,81.47
2019-04-25T05:34:41.863Z,81.47
2019-04-25T05:35:46.280Z,81.24
2019-04-25T05:36:50.713Z,81.16
2019-04-25T05:37:55.011Z,80.93
2019-04-25T05:38:59.422Z,80.67
2019-04-25T05:40:05.617Z,80.84
2019-04-25T05:41:08.148Z,80.93
2019-04-25T05:42:14.130Z,80.70
2019-04-25T05:43:16.920Z,80.90
2019-04-25T05:44:21.302Z,80.93
2019-04-25T05:45:25.795Z,80.83
2019-04-25T05:46:30.115Z,80.75
2019-04-25T05:47:34.533Z,80.25
2019-04-25T05:48:38.791Z,80.14
2019-04-25T05:49:44.097Z,79.69
2019-04-25T05:50:47.517Z,79.29
2019-04-25T05:51:51.900Z,78.91
2019-04-25T05:52:56.241Z,78.76
2019-04-25T05:54:00.687Z,78.44
2019-04-25T05:55:05.059Z,78.32
2019-04-25T05:56:09.433Z,78.19
2019-04-25T05:57:13.866Z,77.99
2019-04-25T05:58:21.116Z,78.02
2019-04-25T05:59:25.711Z,78.22
2019-04-25T06:00:28.867Z,77.95
2019-04-25T06:01:35.594Z,77.69
2019-04-25T06:02:37.434Z,77.57
2019-04-25T06:03:41.856Z,76.45
2019-04-25T06:04:46.241Z,76.46
2019-04-25T06:05:50.492Z,76.89
2019-04-25T06:06:55.258Z,76.32
2019-04-25T06:07:59.204Z,75.31
2019-04-25T06:09:04.116Z,75.37
2019-04-25T06:10:07.870Z,75.39
2019-04-25T06:11:13.547Z,74.79
2019-04-25T06:12:18.105Z,74.76
2019-04-25T06:13:23.250Z,74.14
2019-04-25T06:14:26.240Z,73.86
2019-04-25T06:15:29.633Z,73.42
2019-04-25T06:16:33.933Z,73.23
2019-04-25T06:17:38.241Z,73.40
2019-04-25T06:18:44.001Z,72.73
2019-04-25T06:19:46.901Z,73.21
2019-04-25T06:20:51.330Z,71.64
2019-04-25T06:21:55.613Z,72.39
2019-04-25T06:23:00.036Z,72.86
2019-04-25T06:24:04.381Z,73.11
2019-04-25T06:25:12.835Z,72.96
2019-04-25T06:26:22.905Z,72.40
2019-04-25T06:27:17.413Z,71.30
2019-04-25T06:28:21.783Z,71.38
2019-04-25T06:29:26.069Z,71.52
2019-04-25T06:30:30.467Z,71.87
2019-04-25T06:31:34.858Z,71.99
2019-04-25T06:32:39.162Z,72.17
2019-04-25T06:33:43.579Z,71.86
2019-04-25T06:34:47.897Z,71.77
2019-04-25T06:35:52.260Z,71.55
2019-04-25T06:37:02.337Z,70.96
2019-04-25T06:38:03.624Z,71.89
2019-04-25T06:39:07.296Z,72.15
2019-04-25T06:40:11.574Z,72.27
2019-04-25T06:41:15.887Z,72.56
2019-04-25T06:42:21.139Z,72.74
2019-04-25T06:43:25.489Z,72.78
2019-04-25T06:44:29.390Z,72.68
2019-04-25T06:45:34.452Z,72.45
2019-04-25T06:46:37.731Z,71.77
2019-04-25T06:47:42.115Z,71.93
2019-04-25T06:48:46.482Z,72.00
2019-04-25T06:49:50.868Z,71.92
2019-04-25T06:50:55.264Z,72.11
2019-04-25T06:51:59.555Z,72.06
2019-04-25T06:53:05.219Z,72.19
2019-04-25T06:54:08.252Z,72.16
2019-04-25T06:55:14.102Z,72.44
2019-04-25T06:56:16.996Z,72.28
2019-04-25T06:57:22.152Z,72.52
2019-04-25T06:58:27.323Z,72.69
2019-04-25T06:59:30.199Z,72.25
2019-04-25T07:00:40.981Z,72.42
2019-04-25T07:01:38.809Z,72.24
2019-04-25T07:02:43.513Z,72.47
2019-04-25T07:03:47.562Z,72.52
2019-04-25T07:04:51.892Z,72.32
2019-04-25T07:05:56.293Z,72.37
2019-04-25T07:07:10.433Z,72.71
2019-04-25T07:08:04.941Z,72.75
2019-04-25T07:09:09.275Z,72.57
2019-04-25T07:10:13.672Z,72.68
2019-04-25T07:11:17.966Z,72.83
2019-04-25T07:12:24.933Z,72.74
2019-04-25T07:13:27.083Z,72.56
2019-04-25T07:14:31.558Z,72.76
2019-04-25T07:15:35.437Z,72.96
2019-04-25T07:16:39.876Z,72.96
2019-04-25T07:17:45.779Z,73.21
2019-04-25T07:18:48.676Z,72.90
2019-04-25T07:19:54.155Z,73.12
2019-04-25T07:20:57.400Z,72.94
2019-04-25T07:22:01.794Z,73.15
2019-04-25T07:23:06.207Z,73.62
2019-04-25T07:24:10.486Z,73.32
2019-04-25T07:25:14.837Z,73.53
2019-04-25T07:26:19.251Z,73.25
2019-04-25T07:27:25.374Z,73.32
2019-04-25T07:28:30.236Z,72.77
2019-04-25T07:29:33.704Z,73.21
2019-04-25T07:30:49.283Z,73.45
2019-04-25T07:31:41.119Z,73.51
2019-04-25T07:32:45.434Z,73.09
2019-04-25T07:33:49.784Z,73.14
2019-04-25T07:34:55.106Z,73.16
2019-04-25T07:35:58.551Z,72.99
2019-04-25T07:37:03.428Z,72.95
2019-04-25T07:38:07.255Z,72.65
2019-04-25T07:39:13.348Z,73.14
2019-04-25T07:40:15.991Z,73.22
2019-04-25T07:41:20.326Z,73.00
2019-04-25T07:42:25.949Z,72.73
2019-04-25T07:43:29.647Z,72.11
2019-04-25T07:44:41.926Z,71.47
2019-04-25T07:45:38.304Z,72.29
2019-04-25T07:46:43.334Z,72.08
2019-04-25T07:47:46.725Z,72.14
2019-04-25T07:48:51.081Z,72.21
2019-04-25T07:49:55.407Z,72.32
2019-04-25T07:50:59.764Z,72.67
2019-04-25T07:52:04.107Z,72.53
2019-04-25T07:53:08.455Z,72.35
2019-04-25T07:54:14.275Z,71.93
2019-04-25T07:55:17.258Z,71.17
2019-04-25T07:56:21.570Z,71.05
2019-04-25T07:57:26.796Z,71.25
2019-04-25T07:58:43.647Z,71.44
2019-04-25T07:59:35.371Z,70.45
2019-04-25T08:00:39.012Z,70.53
2019-04-25T08:01:43.692Z,70.62
2019-04-25T08:02:47.712Z,70.80
2019-04-25T08:03:53.636Z,70.78
2019-04-25T08:04:56.435Z,70.93
2019-04-25T08:06:00.850Z,70.55
2019-04-25T08:07:05.248Z,70.57
2019-04-25T08:08:09.499Z,70.87
2019-04-25T08:09:15.616Z,70.56
2019-04-25T08:10:18.241Z,70.39
2019-04-25T08:11:23.759Z,70.46
2019-04-25T08:12:28.231Z,69.75
2019-04-25T08:13:32.543Z,69.55
2019-04-25T08:14:35.739Z,70.06
2019-04-25T08:15:40.051Z,70.00
2019-04-25T08:16:44.370Z,69.67
2019-04-25T08:17:48.735Z,69.91
2019-04-25T08:18:54.001Z,69.57
2019-04-25T08:19:57.574Z,68.72
2019-04-25T08:21:03.330Z,68.12
2019-04-25T08:22:06.304Z,68.25
2019-04-25T08:23:10.684Z,68.76
2019-04-25T08:24:15.087Z,68.60
2019-04-25T08:25:19.424Z,68.78
2019-04-25T08:26:24.048Z,68.85
2019-04-25T08:27:28.176Z,68.45
2019-04-25T08:28:34.463Z,68.11
2019-04-25T08:29:39.223Z,67.26
2019-04-25T08:30:41.792Z,67.76
2019-04-25T08:31:45.624Z,67.09
2019-04-25T08:32:49.972Z,65.60
2019-04-25T08:33:54.296Z,67.24
2019-04-25T08:34:58.768Z,67.04
2019-04-25T08:36:08.367Z,66.95
2019-04-25T08:37:17.584Z,67.06
2019-04-25T08:38:13.482Z,66.90
2019-04-25T08:39:16.139Z,67.34
2019-04-25T08:40:20.611Z,66.83
2019-04-25T08:41:24.885Z,67.10
2019-04-25T08:42:29.325Z,66.81
2019-04-25T08:43:36.316Z,66.23
2019-04-25T08:44:39.163Z,66.24
2019-04-25T08:45:44.126Z,66.86
2019-04-25T08:46:48.698Z,67.57
2019-04-25T08:47:51.210Z,66.67
2019-04-25T08:48:55.516Z,67.41
2019-04-25T08:49:59.911Z,67.21
2019-04-25T08:51:04.297Z,66.35
2019-04-25T08:52:08.681Z,65.72
2019-04-25T08:53:13.658Z,64.80
2019-04-25T08:54:17.428Z,64.63
2019-04-25T08:55:21.843Z,64.81
2019-04-25T08:56:26.154Z,65.39
2019-04-25T08:57:31.887Z,65.64
2019-04-25T08:58:35.407Z,65.05
2019-04-25T08:59:44.489Z,66.01
2019-04-25T09:00:44.687Z,65.17
2019-04-25T09:01:48.142Z,65.08
2019-04-25T09:02:52.528Z,65.56
2019-04-25T09:03:56.975Z,65.56
2019-04-25T09:05:01.301Z,62.75
2019-04-25T09:06:05.723Z,64.00
2019-04-25T09:07:10.101Z,64.18
2019-04-25T09:08:14.518Z,63.70
2019-04-25T09:09:18.820Z,63.92
2019-04-25T09:10:23.731Z,64.67
2019-04-25T09:11:27.673Z,64.73
2019-04-25T09:12:32.810Z,64.73
2019-04-25T09:13:38.120Z,64.59
2019-04-25T09:14:41.052Z,64.53
2019-04-25T09:15:45.814Z,64.30
2019-04-25T09:16:49.596Z,64.58
2019-04-25T09:17:54.689Z,64.88
2019-04-25T09:18:58.393Z,65.43
2019-04-25T09:20:04.034Z,65.51
2019-04-25T09:21:07.199Z,65.24
2019-04-25T09:22:13.179Z,63.88
2019-04-25T09:23:15.950Z,65.25
2019-04-25T09:24:20.445Z,64.43
2019-04-25T09:25:24.747Z,64.02
2019-04-25T09:26:29.234Z,64.03
2019-04-25T09:27:35.191Z,62.40
2019-04-25T09:28:39.532Z,63.09
2019-04-25T09:29:43.483Z,63.20
2019-04-25T09:30:46.723Z,63.62
2019-04-25T09:31:51.195Z,63.91
2019-04-25T09:32:55.515Z,61.35
2019-04-25T09:33:59.964Z,63.13
2019-04-25T09:35:04.280Z,63.09
2019-04-25T09:36:08.647Z,63.13
2019-04-25T09:37:14.241Z,62.46
2019-04-25T09:38:17.403Z,63.72
2019-04-25T09:39:21.854Z,63.71
2019-04-25T09:40:26.195Z,62.82
2019-04-25T09:41:30.645Z,63.62
2019-04-25T09:42:35.745Z,63.71
2019-04-25T09:43:40.304Z,62.47
2019-04-25T09:44:44.205Z,62.30
2019-04-25T09:45:48.205Z,61.44
2019-04-25T09:46:53.700Z,62.52
2019-04-25T09:47:57.001Z,61.24
2019-04-25T09:49:04.408Z,60.00
2019-04-25T09:50:07.803Z,61.81
2019-04-25T09:51:13.551Z,61.91
2019-04-25T09:52:16.568Z,61.85
2019-04-25T09:53:23.700Z,61.85
2019-04-25T09:54:25.413Z,61.97
2019-04-25T09:55:29.756Z,61.78
2019-04-25T09:56:34.125Z,61.81
2019-04-25T09:57:38.937Z,59.51
2019-04-25T09:58:44.633Z,58.61
2019-04-25T09:59:48.124Z,60.87
2019-04-25T10:00:51.619Z,61.01
2019-04-25T10:01:56.019Z,60.02
2019-04-25T10:03:00.351Z,61.02
2019-04-25T10:04:04.766Z,61.65
2019-04-25T10:05:09.132Z,61.55
2019-04-25T10:06:13.478Z,60.69
2019-04-25T10:07:17.873Z,61.01
2019-04-25T10:08:22.254Z,61.29
2019-04-25T10:09:26.599Z,60.47
2019-04-25T10:10:30.942Z,61.65
2019-04-25T10:11:35.302Z,61.35
2019-04-25T10:12:39.741Z,60.45
2019-04-25T10:13:44.818Z,61.02
2019-04-25T10:14:49.173Z,60.08
2019-04-25T10:15:54.603Z,59.91
2019-04-25T10:16:57.319Z,60.52
2019-04-25T10:18:01.743Z,60.97
2019-04-25T10:19:06.168Z,59.54
2019-04-25T10:20:10.459Z,60.82
2019-04-25T10:21:14.859Z,59.77
2019-04-25T10:22:19.270Z,59.99
2019-04-25T10:23:24.053Z,58.10
2019-04-25T10:24:28.166Z,56.67
2019-04-25T10:25:33.429Z,57.23
2019-04-25T10:26:37.660Z,56.27
2019-04-25T10:27:41.298Z,56.67
2019-04-25T10:28:45.708Z,57.52
2019-04-25T10:29:53.789Z,56.35
2019-04-25T10:30:55.574Z,58.71
2019-04-25T10:31:58.803Z,58.71
2019-04-25T10:33:04.103Z,59.32
2019-04-25T10:34:07.523Z,58.88
2019-04-25T10:35:14.639Z,58.73
2019-04-25T10:36:16.299Z,58.60
2019-04-25T10:37:20.785Z,59.26
2019-04-25T10:38:25.130Z,58.93
2019-04-25T10:39:29.619Z,58.68
2019-04-25T10:40:33.935Z,58.42
2019-04-25T10:41:39.946Z,58.66
2019-04-25T10:42:46.479Z,58.31
2019-04-25T10:43:48.130Z,58.63
2019-04-25T10:44:54.010Z,58.05
2019-04-25T10:45:55.981Z,58.25
2019-04-25T10:47:00.346Z,58.05
2019-04-25T10:48:04.743Z,56.87
2019-04-25T10:49:09.089Z,56.40
2019-04-25T10:50:13.615Z,54.84
2019-04-25T10:51:18.013Z,53.10
2019-04-25T10:52:23.322Z,52.95
2019-04-25T10:53:26.890Z,55.26
2019-04-25T10:54:31.318Z,55.16
2019-04-25T10:55:35.754Z,53.44
2019-04-25T10:56:40.191Z,54.20
2019-04-25T10:57:45.485Z,55.14
2019-04-25T10:58:49.014Z,53.92
2019-04-25T11:00:05.625Z,55.23
2019-04-25T11:00:57.716Z,55.68
2019-04-25T11:02:03.938Z,55.83
2019-04-25T11:03:06.514Z,55.47
2019-04-25T11:04:10.873Z,53.76
2019-04-25T11:05:15.261Z,53.68
2019-04-25T11:06:19.678Z,54.16
2019-04-25T11:07:24.041Z,52.72
2019-04-25T11:08:28.452Z,54.19
2019-04-25T11:09:34.250Z,52.35
2019-04-25T11:10:37.276Z,52.72
2019-04-25T11:11:41.646Z,52.02
2019-04-25T11:12:47.128Z,53.47
2019-04-25T11:13:50.480Z,52.63
2019-04-25T11:14:56.200Z,50.74
2019-04-25T11:15:59.360Z,53.65
2019-04-25T11:17:03.764Z,51.94
2019-04-25T11:18:08.213Z,49.87
2019-04-25T11:19:13.571Z,52.07
2019-04-25T11:20:17.031Z,50.93
2019-04-25T11:21:21.490Z,50.50
2019-04-25T11:22:25.858Z,48.55
2019-04-25T11:23:30.276Z,51.64
2019-04-25T11:24:34.681Z,52.42
2019-04-25T11:25:39.080Z,52.29
2019-04-25T11:26:47.132Z,48.95
2019-04-25T11:27:51.966Z,50.20
2019-04-25T11:28:54.551Z,51.17
2019-04-25T11:30:09.197Z,51.08
2019-04-25T11:31:04.175Z,49.89
2019-04-25T11:32:07.692Z,51.42
2019-04-25T11:33:12.095Z,49.00
2019-04-25T11:34:16.908Z,50.09
2019-04-25T11:35:20.962Z,50.71
2019-04-25T11:36:25.297Z,50.53
2019-04-25T11:37:29.777Z,49.55
2019-04-25T11:38:34.188Z,51.32
2019-04-25T11:39:38.674Z,50.32
2019-04-25T11:40:46.601Z,50.29
2019-04-25T11:41:48.295Z,50.83
2019-04-25T11:42:53.026Z,50.55
2019-04-25T11:43:56.821Z,50.27
2019-04-25T11:45:00.776Z,49.53
2019-04-25T11:46:05.271Z,49.90
2019-04-25T11:47:09.792Z,48.02
2019-04-25T11:48:14.191Z,49.60
2019-04-25T11:49:18.764Z,49.03
2019-04-25T11:50:23.188Z,48.53
2019-04-25T11:51:27.691Z,47.33
2019-04-25T11:52:33.601Z,48.58
2019-04-25T11:53:36.652Z,46.09
2019-04-25T11:54:41.048Z,47.61
2019-04-25T11:55:47.816Z,46.31
2019-04-25T11:56:50.776Z,46.86
2019-04-25T11:57:54.974Z,45.28
2019-04-25T11:58:59.019Z,46.17
2019-04-25T12:00:04.273Z,44.79
2019-04-25T12:01:07.942Z,43.91
2019-04-25T12:02:13.340Z,44.99
2019-04-25T12:03:16.882Z,44.22
2019-04-25T12:04:21.392Z,46.48
2019-04-25T12:05:25.879Z,46.11
2019-04-25T12:06:30.347Z,46.73
2019-04-25T12:07:34.809Z,43.17
2019-04-25T12:08:39.283Z,42.54
2019-04-25T12:09:46.493Z,44.61
2019-04-25T12:10:48.223Z,45.27
2019-04-25T12:11:54.310Z,44.94
2019-04-25T12:12:57.856Z,45.44
2019-04-25T12:14:01.651Z,45.30
2019-04-25T12:15:06.168Z,44.69
2019-04-25T12:16:10.678Z,43.48
2019-04-25T12:17:15.146Z,42.26
2019-04-25T12:18:19.549Z,42.40
2019-04-25T12:19:35.119Z,44.63
2019-04-25T12:20:28.570Z,44.98
2019-04-25T12:21:34.031Z,43.81
2019-04-25T12:22:37.530Z,43.21
2019-04-25T12:23:42.027Z,44.21
2019-04-25T12:24:46.701Z,41.71
2019-04-25T12:25:51.920Z,41.76
2019-04-25T12:26:56.026Z,43.11
2019-04-25T12:28:00.282Z,42.26
2019-04-25T12:29:04.496Z,42.88
2019-04-25T12:30:08.818Z,42.13
2019-04-25T12:31:14.757Z,42.44
2019-04-25T12:32:17.773Z,42.69
2019-04-25T12:33:23.836Z,42.83
2019-04-25T12:34:26.632Z,42.43
2019-04-25T12:35:31.201Z,40.66
2019-04-25T12:36:35.717Z,42.87
2019-04-25T12:37:40.064Z,41.97
2019-04-25T12:38:46.056Z,42.20
2019-04-25T12:39:49.125Z,39.70
2019-04-25T12:40:54.380Z,41.99
2019-04-25T12:41:57.994Z,41.59
2019-04-25T12:43:03.181Z,41.84
2019-04-25T12:44:08.841Z,40.29
2019-04-25T12:45:11.548Z,41.25
2019-04-25T12:46:15.993Z,42.15
2019-04-25T12:47:20.366Z,41.02
2019-04-25T12:48:24.846Z,40.58
2019-04-25T12:49:29.246Z,41.87
2019-04-25T12:50:33.789Z,42.34
2019-04-25T12:51:38.180Z,41.26
2019-04-25T12:52:43.277Z,39.56
2019-04-25T12:53:47.969Z,41.23
2019-04-25T12:54:51.595Z,40.18
2019-04-25T12:55:56.186Z,39.76
2019-04-25T12:57:00.468Z,40.73
2019-04-25T12:58:05.881Z,41.54
2019-04-25T12:59:09.397Z,42.17
2019-04-25T13:00:14.067Z,42.14
2019-04-25T13:01:18.394Z,41.84
2019-04-25T13:02:23.517Z,39.19
2019-04-25T13:03:27.271Z,40.66
2019-04-25T13:04:33.149Z,38.90
2019-04-25T13:05:36.212Z,41.63
2019-04-25T13:06:40.630Z,40.21
2019-04-25T13:07:45.166Z,40.69
2019-04-25T13:08:49.664Z,38.62
2019-04-25T13:09:54.138Z,37.24
2019-04-25T13:11:07.938Z,37.58
2019-04-25T13:12:04.375Z,37.32
2019-04-25T13:13:08.392Z,37.37
2019-04-25T13:14:12.089Z,37.73
2019-04-25T13:15:16.540Z,39.48
2019-04-25T13:16:21.103Z,40.79
2019-04-25T13:17:25.571Z,39.73
2019-04-25T13:18:30.072Z,40.23
2019-04-25T13:19:34.508Z,39.10
2019-04-25T13:20:38.948Z,39.30
2019-04-25T13:21:43.421Z,39.93
2019-04-25T13:22:47.926Z,40.06
2019-04-25T13:23:52.352Z,38.55
2019-04-25T13:24:56.797Z,38.69
2019-04-25T13:26:01.629Z,41.14
2019-04-25T13:27:06.141Z,41.30
2019-04-25T13:28:10.261Z,40.97
2019-04-25T13:29:14.708Z,40.56
2019-04-25T13:30:19.101Z,40.00
2019-04-25T13:31:23.555Z,40.27
2019-04-25T13:32:28.068Z,41.24
2019-04-25T13:33:33.511Z,41.86
2019-04-25T13:34:37.026Z,40.28
2019-04-25T13:35:41.434Z,41.72
2019-04-25T13:36:45.992Z,39.96
2019-04-25T13:37:50.377Z,41.30
2019-04-25T13:38:54.901Z,41.07
2019-04-25T13:40:00.468Z,41.86
2019-04-25T13:41:04.085Z,41.46
2019-04-25T13:42:08.286Z,41.93
2019-04-25T13:43:12.738Z,40.54
2019-04-25T13:44:17.127Z,41.64
2019-04-25T13:45:21.633Z,42.06
2019-04-25T13:46:27.517Z,41.28
2019-04-25T13:47:30.786Z,42.86
2019-04-25T13:48:35.645Z,42.27
2019-04-25T13:49:39.392Z,40.52